Meteo4 di Emilio Bellavite Il primo osservatorio Meteo di Verona  
 
giovedì 18 aprile 2019
 
 
dati in tempo reale
Di seguito i dati in tempo reale delle stazioni on line, suddivise per regione, della rete di Meteo4. Cliccando sul link della stazione, ove presente, si accederà al sito web personale.
Stazioni online
Regione ABRUZZO
Località Giorno Ora Temp. Umid. Relat. Dew Point Press. Atm. Velocità Vento Direz. Vento Precip. Temp.
Min
Temp.
Max
Chieti (CH) 18/04/19 15.05 18.7 °C 48 % 7.5 °C 4.3 hPa 11.0 Km/h N 752.0 mm  7.8 °C 19.0 °C
San Salvo3 (CH) 18/04/19 15.09 17.4 °C 43 % 4.7 °C 1020.9 hPa 14.5 Km/h NE 0.0 mm  10.1 °C 17.7 °C
Spoltore (PE) 18/04/19 14.59 17.8 °C 57 % 9.2 °C 1024.0 hPa 7.9 Km/h ESE 0.0 mm  10.1 °C 18.2 °C
Vasto (CH) 18/04/19 15.05 16.5 °C 10 % -15.2 °C 1024.0 hPa 16.2 Km/h N 0.0 mm  11.3 °C 17.2 °C
 
 
Regione BASILICATA
Località Giorno Ora Temp. Umid. Relat. Dew Point Press. Atm. Velocità Vento Direz. Vento Precip. Temp.
Min
Temp.
Max
Miglionico (MT) 18/04/19 15.00 16.4 °C 47 % 5.1 °C 1018.8 hPa 19.3 Km/h N 0.0 mm  8.8 °C 16.7 °C
 
 
Regione CALABRIA
Località Giorno Ora Temp. Umid. Relat. Dew Point Press. Atm. Velocità Vento Direz. Vento Precip. Temp.
Min
Temp.
Max
Bisignano (CS) 18/04/19 15.04 22.2 °C 20 % -1.8 °C 1015.6 hPa 13.1 Km/h N 0.0 mm  7.9 °C 22.4 °C
 
 
Regione CAMPANIA
Località Giorno Ora Temp. Umid. Relat. Dew Point Press. Atm. Velocità Vento Direz. Vento Precip. Temp.
Min
Temp.
Max
 
 
Regione EMILIA ROMAGNA
Località Giorno Ora Temp. Umid. Relat. Dew Point Press. Atm. Velocità Vento Direz. Vento Precip. Temp.
Min
Temp.
Max
Bellaria Igea Marina (RN) 18/04/19 15.08 16.4 °C 71 % 11.1 °C 1024.0 hPa 12.9 Km/h ENE 0.0 mm  7.6 °C 17.1 °C
Bellaria Igea Marina2 (RN) 18/04/19 15.08 16.2 °C 74 % 11.6 °C 1023.6 hPa 14.5 Km/h ENE 0.0 mm  7.6 °C 16.6 °C
Carpi (MO) 18/04/19 15.05 22.1 °C 39 % 7.5 °C 1023.1 hPa 6.7 Km/h ENE 0.0 mm  6.8 °C 22.3 °C
Filo di Argenta (FE) 18/04/19 15.05 19.6 °C 41 % 5.9 °C 1024.8 hPa 8.5 Km/h E 0.0 mm  6.2 °C 20.0 °C
Masiera di Bagnacavallo (RA) 18/04/19 15.05 20.1 °C 49 % 9.0 °C 1022.9 hPa 9.8 Km/h SSW 0.0 mm  6.1 °C 20.5 °C
Migliarino (FE) 18/04/19 15.08 22.5 °C 28 % 3.1 °C 1024.2 hPa 3.5 Km/h NW 0.0 mm  10.0 °C 22.9 °C
Ponte San Pellegrino (MO) 18/04/19 15.07 19.5 °C 38 % 4.8 °C 1027.0 hPa 0.0 Km/h NE 0.0 mm  7.1 °C 19.7 °C
Riccione (RN) 16/04/19 20.49 12.5 °C 68 % 6.8 °C 1018.6 hPa 0.0 Km/h SW 0.0 mm  4.8 °C 14.8 °C
Rimini (RN) 18/04/19 15.00 16.6 °C 73 % 11.7 °C 1024.7 hPa 11.3 Km/h NE 0.0 mm  7.7 °C 17.4 °C
Rimini Zona Palas (RN) 18/04/19 15.04 16.7 °C 69 % 11.0 °C 1024.8 hPa 6.4 Km/h E 0.0 mm  7.9 °C 16.7 °C
Stiore - Monteveglio (BO) 18/04/19 15.09 19.7 °C 42 % 6.4 °C 1020.6 hPa 22.5 Km/h SSW 0.0 mm  6.5 °C 19.9 °C
 
 
Regione FRIULI V.G.
Località Giorno Ora Temp. Umid. Relat. Dew Point Press. Atm. Velocità Vento Direz. Vento Precip. Temp.
Min
Temp.
Max
Budoia (PN) 18/04/19 15.01 20.6 °C 41 % 6.8 °C 1024.6 hPa 6.4 Km/h E 0.0 mm  9.3 °C 21.1 °C
Campoformido (UD) 18/04/19 15.07 20.9 °C 40 % 6.7 °C 1024.3 hPa 4.6 Km/h E 0.0 mm  11.7 °C 20.9 °C
Codroipo (UD) 18/04/19 15.05 22.5 °C 29 % 3.6 °C 1022.3 hPa 6.1 Km/h E 0.0 mm  10.2 °C 22.7 °C
Fogliano Redipuglia (GO) 18/04/19 15.06 21.1 °C 25 % 0.3 °C 1024.1 hPa 16.9 Km/h ENE 0.0 mm  9.2 °C 22.4 °C
Fontanafredda (PN) 18/04/19 00.22 13.7 °C 77 % 9.7 °C 1022.4 hPa 4.8 Km/h E 0.0 mm  13.7 °C 14.2 °C
Gorizia (GO) 18/04/19 15.05 20.9 °C 34 % 4.3 °C 1024.1 hPa 0.0 Km/h ENE 0.0 mm  9.9 °C 21.0 °C
Ovaro loc. Liariis (UD) 18/04/19 14.55 16.5 °C 45 % 4.5 °C 1025.4 hPa 3.2 Km/h SE 0.0 mm  6.3 °C 16.8 °C
Pordenone (PN) 17/04/19 20.00 18.7 °C 50 % 8.1 °C 1018.8 hPa 0.0 Km/h S 0.0 mm  8.7 °C 23.1 °C
Sacile (PN) 18/04/19 14.55 20.9 °C 29 % 2.2 °C 1024.6 hPa 8.0 Km/h E 0.0 mm  8.1 °C 21.1 °C
Sacile2 (PN) 18/04/19 15.05 21.1 °C 44 % 8.4 °C 1024.4 hPa 1.2 Km/h E 0.0 mm  7.4 °C 21.3 °C
Staranzano (GO) 18/04/19 14.50 20.9 °C 37 % 5.7 °C 1024.6 hPa 4.8 Km/h ESE 0.0 mm  11.1 °C 21.6 °C
 
 
Regione LAZIO
Località Giorno Ora Temp. Umid. Relat. Dew Point Press. Atm. Velocità Vento Direz. Vento Precip. Temp.
Min
Temp.
Max
Acquapendente (VT) 18/04/19 15.08 21.3 °C 33 % 4.4 °C 1020.4 hPa 18.7 Km/h NE 0.0 mm  3.9 °C 21.5 °C
Capodimonte (VT) 18/04/19 15.05 19.4 °C 36 % 4.0 °C 1022.6 hPa 5.8 Km/h NNW 0.0 mm  9.4 °C 19.6 °C
Caprarola Centro Storico (VT) 18/04/19 15.08 19.8 °C 27 % 0.2 °C 1022.0 hPa 5.8 Km/h SE 0.0 mm  8.8 °C 20.0 °C
Civita Castellana (VT) 18/04/19 15.09 22.6 °C 29 % 3.7 °C 1020.9 hPa 3.2 Km/h SSE 0.0 mm  7.8 °C 22.6 °C
Marta (VT) 18/04/19 15.05 19.6 °C 39 % 5.2 °C 1019.8 hPa 9.7 Km/h N 0.0 mm  10.1 °C 19.6 °C
Pomezia (RM) 18/04/19 15.09 20.1 °C 48 % 8.8 °C 1020.4 hPa 3.2 Km/h SSW 0.0 mm  11.6 °C 20.6 °C
Rocca Priora (RM) 18/04/19 14.35 15.5 °C 60 % 7.8 °C 1022.8 hPa 9.7 Km/h WSW 0.0 mm  8.9 °C 15.8 °C
Ronciglione Centro (VT) 18/04/19 15.05 20.9 °C 25 % 0.1 °C 1020.0 hPa 3.2 Km/h SE 0.0 mm  8.9 °C 21.5 °C
Ronciglione - Ponte Cuzzoli (VT) 18/04/19 15.09 21.4 °C 28 % 2.2 °C 1021.0 hPa 0.0 Km/h ESE 0.0 mm  7.5 °C 21.3 °C
S. Lorenzo Nuovo (VT) 18/04/19 15.05 18.3 °C 37 % 3.3 °C 1020.2 hPa 10.1 Km/h NNE 0.0 mm  8.9 °C 18.4 °C
Valentano (VT) 18/04/19 15.08 18.1 °C 34 % 1.7 °C 1020.2 hPa 0.0 Km/h E 0.0 mm  9.2 °C 18.2 °C
Viterbo Santa Barbara (VT) 18/04/19 15.09 20.7 °C 33 % 3.9 °C 1020.4 hPa 8.5 Km/h NNE 0.0 mm  8.7 °C 21.2 °C
Viterbo Strada Bagni (VT) 18/04/19 15.04 22.0 °C 32 % 4.5 °C 1020.0 hPa 0.0 Km/h NW 0.0 mm  7.0 °C 23.0 °C
Vitorchiano Pallone (VT) 18/04/19 15.00 20.2 °C 34 % 3.8 °C 1019.6 hPa 8.0 Km/h ESE 0.0 mm  8.9 °C 20.2 °C
 
 
Regione LIGURIA
Località Giorno Ora Temp. Umid. Relat. Dew Point Press. Atm. Velocità Vento Direz. Vento Precip. Temp.
Min
Temp.
Max
Arenzano (GE) 18/04/19 15.08 20.6 °C 29 % 1.9 °C 1022.6 hPa 12.9 Km/h S 0.0 mm  13.3 °C 20.7 °C
Cosseria Lidora (SV) 18/04/19 15.00 19.3 °C 29 % 0.8 °C 1022.3 hPa 4.8 Km/h ESE 0.0 mm  4.9 °C 19.5 °C
Genova (GE) 18/04/19 15.09 21.4 °C 25 % 0.6 °C 1025.0 hPa 4.8 Km/h S 0.0 mm  14.2 °C 21.4 °C
Genova Erzelli (GE) 18/04/19 15.08 21.1 °C 28 % 1.8 °C 1021.4 hPa 10.8 Km/h SSW 0.0 mm  13.2 °C 21.8 °C
Genova Oregina (GE) 17/04/19 19.22 16.3 °C 62 % 9.0 °C 1019.6 hPa 0.0 Km/h SW 0.0 mm  12.0 °C 18.2 °C
Loano (SV) 18/04/19 14.10 20.1 °C 31 % 2.4 °C 1022.4 hPa 6.0 Km/h ENE 0.0 mm  12.8 °C 20.1 °C
Moneglia loc. Casale (GE) 18/04/19 15.05 20.5 °C 31 % 2.8 °C 1023.5 hPa 0.0 Km/h SSW 0.0 mm  14.3 °C 21.8 °C
Moneglia loc. La Secca (GE) 18/04/19 15.05 17.8 °C 50 % 7.2 °C 1017.0 hPa 0.0 Km/h SW 0.0 mm  17.8 °C 17.8 °C
Ortonovo (SP) 18/04/19 15.05 22.3 °C 22 % -0.5 °C 1021.8 hPa 7.2 Km/h SW 0.0 mm  13.2 °C 22.6 °C
Varese Ligure (SP) 18/04/19 15.05 7.1 °C 89 % 5.4 °C 1016.0 hPa 4.0 Km/h N 0.0 mm  7.1 °C 7.1 °C
 
 
Regione LOMBARDIA
Località Giorno Ora Temp. Umid. Relat. Dew Point Press. Atm. Velocità Vento Direz. Vento Precip. Temp.
Min
Temp.
Max
Bernate Ticino fraz. Casate (MI) 18/04/19 15.05 20.4 °C 43 % 7.3 °C 1020.5 hPa 0.0 Km/h ESE 0.0 mm  7.9 °C 20.4 °C
Besozzo (VA) 18/04/19 15.04 19.4 °C 38 % 4.7 °C 1022.9 hPa 6.4 Km/h S 0.0 mm  5.4 °C 20.0 °C
Brebbia (VA) 18/04/19 14.30 20.3 °C 42 % 7.0 °C 1024.7 hPa 1.6 Km/h S 0.0 mm  6.2 °C 21.6 °C
Calcinato (BS) 18/04/19 15.08 20.7 °C 41 % 6.9 °C 1025.9 hPa 12.9 Km/h SSE 0.0 mm  10.1 °C 20.8 °C
Cassano Magnago (VA) 18/04/19 14.59 20.9 °C 35 % 4.9 °C 1022.2 hPa 1.6 Km/h SE 0.0 mm  10.1 °C 21.4 °C
Cavaria con Premezzo (VA) 18/04/19 15.04 19.9 °C 36 % 4.4 °C 1022.6 hPa 7.8 Km/h SW 0.0 mm  9.2 °C 19.9 °C
Costa Volpino (BG) 18/04/19 15.02 19.2 °C 35 % 3.4 °C 1020.1 hPa 7.9 Km/h SW 0.0 mm  9.7 °C 19.3 °C
Dorno (PV) 18/04/19 15.09 20.6 °C 43 % 7.6 °C 1023.2 hPa 5.8 Km/h ESE 0.0 mm  9.3 °C 20.9 °C
Esine (BS) 18/04/19 15.08 18.7 °C 47 % 7.1 °C 1022.3 hPa 11.2 Km/h SSW 0.0 mm  10.8 °C 18.7 °C
Gaggiano (MI) 18/04/19 15.06 20.1 °C 41 % 6.4 °C 1023.0 hPa 8.7 Km/h E 0.0 mm  10.8 °C 20.6 °C
Laxolo (BG) 18/04/19 15.06 15.9 °C 51 % 5.8 °C 1020.3 hPa 2.6 Km/h S 0.0 mm  7.2 °C 18.7 °C
Lesmo (MB) 18/04/19 15.00 19.8 °C 51 % 9.4 °C 1024.1 hPa 3.2 Km/h E 0.0 mm  7.4 °C 19.8 °C
Limbiate (MB) 18/04/19 14.55 23.5 °C 30 % 4.9 °C 1014.8 hPa 7.2 Km/h S 0.0 mm  8.6 °C 23.5 °C
Lovere (BG) 18/04/19 15.07 21.1 °C 49 % 0.0 °C 1017.5 hPa 2.6 Km/h E 0.0 mm  11.8 °C 21.1 °C
Malnate San Salvatore (VA) 18/04/19 14.55 20.1 °C 45 % 7.7 °C 1024.0 hPa 3.2 Km/h WNW 0.0 mm  7.9 °C 20.1 °C
Mezzana Bigli (PV) 18/04/19 15.05 21.9 °C 42 % 8.4 °C 1021.9 hPa 2.0 Km/h NE 0.0 mm  7.2 °C 21.9 °C
Montagna in Valtellina (SO) 18/04/19 15.08 18.9 °C 50 % 8.2 °C 1022.5 hPa 0.9 Km/h SW 0.0 mm  10.1 °C 19.4 °C
Morbegno (SO) 18/04/19 15.09 19.3 °C 48 % 8.0 °C 1019.8 hPa 15.1 Km/h SW 0.0 mm  9.4 °C 19.3 °C
Rivalta sul Mincio (MN) 18/04/19 15.02 21.1 °C 47 % 9.4 °C 1024.1 hPa 9.6 Km/h ESE 0.0 mm  9.8 °C 21.3 °C
 
 
Regione MARCHE
Località Giorno Ora Temp. Umid. Relat. Dew Point Press. Atm. Velocità Vento Direz. Vento Precip. Temp.
Min
Temp.
Max
Ancona (AN) 18/04/19 15.00 17.9 °C 43 % 5.2 °C 1025.0 hPa 8.0 Km/h N 0.0 mm  7.2 °C 19.1 °C
Ancona loc. Brecce Bianche (AN) 18/04/19 15.05 17.7 °C 42 % 4.6 °C 1027.1 hPa 7.9 Km/h ENE 0.0 mm  6.3 °C 18.7 °C
Barbara (AN) 18/04/19 15.08 17.2 °C 45 % 5.2 °C 1026.2 hPa 18.4 Km/h NNE 0.0 mm  9.0 °C 17.9 °C
Ca' Gallo (PU) 18/04/19 14.59 19.1 °C 40 % 5.2 °C 1019.5 hPa 15.8 Km/h NE 0.0 mm  4.4 °C 19.8 °C
Marina di Montemarciano (AN) 18/04/19 15.00 17.8 °C 66 % 11.3 °C 1025.1 hPa 4.8 Km/h NNE 0.0 mm  6.1 °C 18.3 °C
Massignano (AP) 18/04/19 15.09 19.8 °C 39 % 5.4 °C 1024.7 hPa 4.3 Km/h SE 0.0 mm  10.9 °C 19.9 °C
Montelabbate (PU) 18/04/19 14.59 19.3 °C 33 % 2.5 °C 1018.8 hPa 6.4 Km/h N 0.0 mm  5.4 °C 19.4 °C
San Benedetto del Tronto (AP) 18/04/19 14.30 16.8 °C 45 % 4.8 °C 1020.5 hPa 1.9 Km/h NW 0.0 mm  12.3 °C 16.9 °C
 
 
Regione MOSELLE
Località Giorno Ora Temp. Umid. Relat. Dew Point Press. Atm. Velocità Vento Direz. Vento Precip. Temp.
Min
Temp.
Max
Seremange Erzange (Moselle) 18/04/19 15.08 20.8 °C 39 % 6.3 °C 1021.7 hPa 7.9 Km/h E 0.0 mm  6.6 °C 20.9 °C
 
 
Regione PIEMONTE
Località Giorno Ora Temp. Umid. Relat. Dew Point Press. Atm. Velocità Vento Direz. Vento Precip. Temp.
Min
Temp.
Max
Castelferro (AL) 18/04/19 15.08 20.3 °C 44 % 7.7 °C 1022.9 hPa 3.2 Km/h NE 0.0 mm  7.6 °C 20.3 °C
Monasterolo Torinese (TO) 18/04/19 15.00 17.3 °C 49 % 6.5 °C 1019.2 hPa 0.0 Km/h ENE 0.0 mm  9.9 °C 17.8 °C
Mongrando San Michele (BI) 18/04/19 15.00 17.4 °C 100 % 17.4 °C 1022.8 hPa 1.6 Km/h NNE 0.0 mm  8.2 °C 18.5 °C
Muzzano (BI) 18/04/19 15.00 16.3 °C 54 % 7.0 °C 1022.0 hPa 1.6 Km/h E 0.0 mm  11.2 °C 17.2 °C
Nichelino (TO) 18/04/19 11.20 18.2 °C 51 % 7.9 °C 1025.8 hPa 8.0 Km/h NW 0.0 mm  9.2 °C 18.2 °C
Novara (NO) 18/04/19 15.00 21.9 °C 39 % 7.3 °C 1022.7 hPa 1.6 Km/h E 0.0 mm  8.2 °C 22.0 °C
Parella (TO) 18/04/19 15.00 18.6 °C 45 % 6.4 °C 1021.2 hPa 0.0 Km/h SE 0.0 mm  10.0 °C 18.6 °C
Pecetto Torinese (TO) 18/04/19 14.59 20.0 °C 39 % 5.6 °C 1022.2 hPa 1.6 Km/h WNW 0.0 mm  10.9 °C 20.4 °C
Pila Valsesia (VC) 18/04/19 15.00 14.4 °C 57 % 6.0 °C 1021.3 hPa 4.8 Km/h ESE 0.0 mm  4.9 °C 15.2 °C
Piovà Massaia (AT) 18/04/19 15.08 19.5 °C 52 % 9.4 °C 1021.2 hPa 1.4 Km/h E 0.0 mm  11.6 °C 19.7 °C
Pozzolo Formigaro (AL) 18/04/19 15.04 21.8 °C 52 % 11.5 °C 1023.5 hPa 3.9 Km/h NW 0.0 mm  6.0 °C 21.8 °C
Pray (BI) 18/04/19 15.05 17.0 °C 49 % 6.2 °C 1023.2 hPa 2.0 Km/h --- 0.0 mm  4.9 °C 17.9 °C
Soriso (NO) 18/04/19 15.00 18.1 °C 46 % 6.3 °C 1023.6 hPa 1.6 Km/h ESE 0.0 mm  10.8 °C 19.4 °C
Torino Regio Parco (TO) 18/04/19 15.09 19.8 °C 37 % 4.7 °C 1026.6 hPa 7.2 Km/h NE 0.0 mm  10.8 °C 20.4 °C
Valenza (AL) 18/04/19 15.09 19.6 °C 42 % 6.3 °C 1022.0 hPa 12.9 Km/h NNE 0.0 mm  8.6 °C 19.7 °C
Villar Perosa (TO) 18/04/19 15.04 17.2 °C 43 % 4.4 °C 1022.9 hPa 5.6 Km/h WSW 0.0 mm  8.1 °C 17.7 °C
Viozene Toria (CN) 17/04/19 09.48 8.2 °C 38 % -5.3 °C 1015.5 hPa 4.0 Km/h SE 0.0 mm  2.1 °C 8.2 °C
 
 
Regione PUGLIA
Località Giorno Ora Temp. Umid. Relat. Dew Point Press. Atm. Velocità Vento Direz. Vento Precip. Temp.
Min
Temp.
Max
Acquaviva delle Fonti (BA) 18/04/19 15.08 17.3 °C 54 % 7.9 °C 1021.2 hPa 12.2 Km/h NE 0.0 mm  8.9 °C 17.8 °C
S. Giovanni Rotondo (FG) 18/04/19 15.09 15.5 °C 40 % 2.0 °C 1022.6 hPa 16.1 Km/h NW 0.0 mm  8.7 °C 16.1 °C
Taranto (TA) 18/04/19 15.09 19.1 °C 49 % 8.1 °C 1017.0 hPa 10.9 Km/h NE 0.0 mm  11.8 °C 19.9 °C
Torremaggiore (FG) 18/04/19 15.06 17.8 °C 51 % 7.5 °C 1021.7 hPa 7.9 Km/h NNE 0.0 mm  10.2 °C 18.2 °C
Vieste (FG) 18/04/19 09.24 17.0 °C 57 % 8.4 °C 1021.6 hPa 6.1 Km/h NNE 0.0 mm  13.8 °C 17.1 °C
 
 
Regione SARDEGNA
Località Giorno Ora Temp. Umid. Relat. Dew Point Press. Atm. Velocità Vento Direz. Vento Precip. Temp.
Min
Temp.
Max
Bitti (NU) 18/04/19 15.05 13.9 °C 63 % 7.0 °C 1042.8 hPa 5.8 Km/h NNE 0.0 mm  6.5 °C 14.6 °C
Bonorva (SS) 18/04/19 15.05 21.7 °C 47 % 9.9 °C 1017.4 hPa 1.6 Km/h NE 0.0 mm  7.1 °C 22.2 °C
Borore (NU) 18/04/19 15.09 18.2 °C 62 % 10.8 °C 1017.1 hPa 16.9 Km/h NNE 0.0 mm  7.7 °C 18.4 °C
Iglesias (CI) 18/04/19 15.06 18.5 °C 59 % 10.3 °C 1021.5 hPa 20.9 Km/h NNE 0.0 mm  11.6 °C 19.6 °C
Oristano (OR) 18/04/19 15.11 22.0 °C 42 % 8.5 °C 1015.9 hPa 21.5 Km/h ESE 0.0 mm  10.4 °C 22.9 °C
Sinnai (CA) 18/04/19 14.50 19.3 °C 57 % 10.6 °C 1018.8 hPa 9.7 Km/h ENE 0.0 mm  11.4 °C 20.0 °C
 
 
Regione SICILIA
Località Giorno Ora Temp. Umid. Relat. Dew Point Press. Atm. Velocità Vento Direz. Vento Precip. Temp.
Min
Temp.
Max
Barcellona P.G. Centro (ME) 18/04/19 15.08 19.6 °C 66 % 13.1 °C 1020.6 hPa 16.1 Km/h WNW 0.0 mm  11.0 °C 19.8 °C
Barcellona Pozzo di Gotto (ME) 18/04/19 15.09 18.7 °C 66 % 12.2 °C 1020.7 hPa 0.2 Km/h NNW 0.0 mm  11.6 °C 18.9 °C
Brolo c/da Parrazzà (ME) 18/04/19 15.05 17.3 °C 72 % 12.2 °C 1020.7 hPa 8.0 Km/h WNW 0.0 mm  10.8 °C 18.4 °C
Buccheri (SR) 18/04/19 13.09 12.7 °C 71 % 7.6 °C 1021.4 hPa 7.6 Km/h N 0.3 mm  6.9 °C 13.1 °C
Caltabellotta (AG) 18/04/19 14.55 12.1 °C 77 % 8.2 °C 1020.6 hPa 8.0 Km/h SSE 0.0 mm  9.3 °C 13.7 °C
Cammarata (AG) 18/04/19 15.05 15.3 °C 69 % 9.7 °C 1021.2 hPa 11.2 Km/h NE 0.0 mm  8.2 °C 15.4 °C
Cefalù (PA) 18/04/19 15.08 16.8 °C 65 % 10.2 °C 1016.7 hPa 4.3 Km/h ENE 0.0 mm  11.2 °C 16.9 °C
Marineo (PA) 18/04/19 15.09 16.6 °C 59 % 8.5 °C 1019.9 hPa 9.7 Km/h N 0.0 mm  9.6 °C 17.9 °C
Mirabella Imbaccari (CT) 18/04/19 15.05 17.9 °C 54 % 8.5 °C 1023.1 hPa 3.7 Km/h ENE 0.2 mm  9.1 °C 18.3 °C
Pace del Mela (ME) 18/04/19 15.05 19.9 °C 55 % 10.6 °C 1015.6 hPa 6.8 Km/h WNW 0.0 mm  10.4 °C 20.1 °C
Piraino contr. Fiumara (ME) 18/04/19 15.05 19.3 °C 67 % 13.0 °C 1021.0 hPa 3.0 Km/h W 0.0 mm  8.5 °C 20.4 °C
San Cataldo (CL) 18/04/19 15.09 16.7 °C 57 % 8.1 °C 1017.6 hPa 0.4 Km/h SSE 0.0 mm  8.8 °C 16.9 °C
San Giovanni la Punta Trappeto (CT) 18/04/19 15.05 17.8 °C 66 % 11.3 °C 1022.2 hPa 14.5 Km/h E 0.0 mm  10.3 °C 18.9 °C
 
 
Regione TOSCANA
Località Giorno Ora Temp. Umid. Relat. Dew Point Press. Atm. Velocità Vento Direz. Vento Precip. Temp.
Min
Temp.
Max
Bientina (PI) 18/04/19 15.05 23.8 °C 28 % 4.2 °C 1019.5 hPa 8.6 Km/h SE 0.0 mm  7.8 °C 24.1 °C
Carmignano loc. Seano (PO) 18/04/19 15.09 22.3 °C 31 % 4.3 °C 1022.0 hPa 18.9 Km/h N 0.0 mm  6.3 °C 22.7 °C
Castelnuovo V.C. (PI) 18/04/19 15.02 18.9 °C 41 % 5.3 °C 1021.0 hPa 7.4 Km/h NE 0.0 mm  6.8 °C 18.9 °C
Castiglione della Pescaia (GR) 18/04/19 15.08 21.8 °C 47 % 10.0 °C 1020.9 hPa 14.4 Km/h WNW 0.0 mm  5.9 °C 24.8 °C
Castiglione della Pescaia Vaticino (GR) 18/04/19 15.05 0.0 °C 0 % 0.0 °C 1011.4 hPa 4.7 Km/h N 0.0 mm  10.8 °C 17.1 °C
Chiusi (SI) 16/04/19 04.30 8.4 °C 74 % 4.1 °C 1017.8 hPa 0.0 Km/h E 0.0 mm  8.3 °C 9.3 °C
Isola d'Elba Marina di Campo (LI) 18/04/19 11.30 16.9 °C 64 % 10.0 °C 854.3 hPa 6.4 Km/h SW 0.0 mm  8.6 °C 18.4 °C
Montopoli in val d'Arno Loc. Capanne (PI) 18/04/19 15.00 22.9 °C 34 % 6.1 °C 1021.0 hPa 5.4 Km/h NNE 0.0 mm  5.4 °C 23.3 °C
Musigliano (PI) 18/04/19 15.07 25.4 °C 24 % 3.4 °C 1020.5 hPa 19.0 Km/h 0.0 mm  8.1 °C 25.5 °C
Pisa zona I Passi (PI) 18/04/19 15.09 23.4 °C 24 % 1.7 °C 1021.3 hPa 9.0 Km/h NE 0.0 mm  8.9 °C 23.5 °C
Reggello (FI) 18/04/19 15.05 19.0 °C 32 % 1.9 °C 1024.7 hPa 16.1 Km/h S 0.0 mm  8.6 °C 20.1 °C
Torri (FI) 18/04/19 04.00 8.4 °C 67 % 2.6 °C 1021.7 hPa 1.6 Km/h NW 0.0 mm  8.3 °C 11.1 °C
Torrita di Siena (SI) 18/04/19 15.05 20.1 °C 39 % 5.7 °C 1022.5 hPa 19.3 Km/h ENE 0.0 mm  3.3 °C 20.5 °C
 
 
Regione TRENTINO A. A.
Località Giorno Ora Temp. Umid. Relat. Dew Point Press. Atm. Velocità Vento Direz. Vento Precip. Temp.
Min
Temp.
Max
Ala (TN) 18/04/19 15.08 19.4 °C 40 % 5.5 °C 1022.4 hPa 19.5 Km/h WSW 0.0 mm  10.5 °C 20.4 °C
Avio (TN) 18/04/19 15.09 21.9 °C 35 % 5.7 °C 1022.9 hPa 5.8 Km/h NNW 0.0 mm  11.1 °C 22.9 °C
Balbido (TN) 18/04/19 15.05 15.2 °C 56 % 6.5 °C 1024.0 hPa 4.5 Km/h NW 0.0 mm  8.5 °C 16.5 °C
Besenello (TN) 18/04/19 15.04 19.8 °C 42 % 6.5 °C 1022.9 hPa 3.9 Km/h NNE 0.0 mm  9.7 °C 20.9 °C
Bolognano di Arco (TN) 18/04/19 15.08 19.7 °C 44 % 7.1 °C 1024.2 hPa 11.3 Km/h SW 0.0 mm  10.1 °C 19.7 °C
Borgo Valsugana (TN) 18/04/19 14.59 20.7 °C 28 % 1.5 °C 1021.9 hPa 12.6 Km/h NE 0.0 mm  8.4 °C 21.1 °C
Calliano (TN) 18/04/19 15.08 20.6 °C 39 % 6.2 °C 1021.8 hPa 3.2 Km/h SSW 0.0 mm  9.2 °C 21.4 °C
Carezza (BZ) 18/04/19 14.59 9.2 °C 63 % 2.5 °C 1018.2 hPa 2.1 Km/h WNW 0.0 mm  0.7 °C 10.3 °C
Fiavè loc. Ballino (TN) 18/04/19 15.04 13.6 °C 63 % 6.7 °C 1023.4 hPa 6.7 Km/h SSE 0.0 mm  7.7 °C 13.7 °C
Gardolo (TN) 18/04/19 15.04 19.9 °C 44 % 7.3 °C 1022.8 hPa 11.9 Km/h NNE 0.0 mm  9.8 °C 20.4 °C
Isera loc. Reviano (TN) 18/04/19 15.09 20.1 °C 38 % 5.3 °C 1021.6 hPa 8.3 Km/h ESE 0.0 mm  10.2 °C 21.1 °C
Lavis (TN) 18/04/19 14.05 21.1 °C 38 % 6.1 °C 1022.8 hPa 16.1 Km/h SSW 0.0 mm  10.3 °C 21.6 °C
Malga Nardis (TN) 12/04/19 15.26 5.4 °C 83 % 2.7 °C 1009.7 hPa 4.4 Km/h WNW 0.2 mm  -0.2 °C 6.8 °C
Margone (TN) 18/04/19 15.00 13.4 °C 59 % 5.5 °C 1025.6 hPa 16.9 Km/h SSW 0.0 mm  7.8 °C 13.4 °C
Martignano (TN) 18/04/19 15.04 18.7 °C 44 % 6.2 °C 1021.1 hPa 17.7 Km/h WNW 0.0 mm  10.8 °C 18.8 °C
Massone di Arco (TN) 18/04/19 15.05 18.7 °C 45 % 6.8 °C 1023.0 hPa 11.0 Km/h SO 0.0 mm  10.9 °C 18.7 °C
Miola di Piné (TN) 18/04/19 15.05 14.7 °C 51 % 4.7 °C 1024.0 hPa 10.7 Km/h SE 0.0 mm  5.9 °C 14.7 °C
Padergnone (TN) 18/04/19 15.00 19.5 °C 46 % 7.6 °C 1023.8 hPa 6.5 Km/h S 0.0 mm  8.2 °C 19.7 °C
Taio Mollaro (TN) 18/04/19 15.08 20.7 °C 37 % 5.5 °C 1023.6 hPa 6.5 Km/h WSW 0.0 mm  8.1 °C 20.9 °C
Trambileno (TN) 18/04/19 15.04 17.0 °C 47 % 5.6 °C 1021.4 hPa 0.0 Km/h NW 0.0 mm  7.0 °C 17.0 °C
Trento (TN) 18/04/19 15.04 22.6 °C 36 % 6.7 °C 1021.2 hPa 14.5 Km/h SSW 0.0 mm  12.2 °C 22.7 °C
Vattaro fraz. Pian dei Pradi (TN) 18/04/19 15.07 16.6 °C 48 % 5.5 °C 1023.7 hPa 4.1 Km/h S 0.0 mm  8.2 °C 16.6 °C
 
 
Regione UMBRIA
Località Giorno Ora Temp. Umid. Relat. Dew Point Press. Atm. Velocità Vento Direz. Vento Precip. Temp.
Min
Temp.
Max
Castiglione del Lago (PG) 18/04/19 15.00 20.9 °C 39 % 6.4 °C 1024.0 hPa 9.7 Km/h N 0.0 mm  3.8 °C 21.2 °C
Foligno (PG) 18/04/19 15.00 21.3 °C 33 % 4.4 °C 1020.9 hPa 14.5 Km/h ENE 0.0 mm  7.0 °C 21.5 °C
Orvieto (TR) 18/04/19 15.01 21.9 °C 32 % 4.4 °C 1019.1 hPa 6.5 Km/h NW 0.0 mm  5.0 °C 23.2 °C
Perugia San Mariano (PG) 18/04/19 15.04 19.2 °C 37 % 4.1 °C 1021.8 hPa 9.0 Km/h NNE 0.0 mm  5.8 °C 20.3 °C
Todi (PG) 18/04/19 15.05 20.3 °C 36 % 4.7 °C 1020.5 hPa 2.0 Km/h NW 0.0 mm  8.9 °C 20.3 °C
 
 
Regione VALLE DAOSTA
Località Giorno Ora Temp. Umid. Relat. Dew Point Press. Atm. Velocità Vento Direz. Vento Precip. Temp.
Min
Temp.
Max
Colle del Piccolo San Bernardo La Thuile (AO) 18/04/19 15.04 4.1 °C 66 % -1.7 °C 1023.1 hPa 10.4 Km/h ENE 0.0 mm  -1.3 °C 4.1 °C
 
 
Regione VENETO
Località Giorno Ora Temp. Umid. Relat. Dew Point Press. Atm. Velocità Vento Direz. Vento Precip. Temp.
Min
Temp.
Max
Abano (PD) 18/04/19 15.00 21.1 °C 39 % 6.6 °C 1024.6 hPa 6.4 Km/h ESE 0.0 mm  9.8 °C 21.6 °C
Alleghe (BL) 18/04/19 15.08 13.9 °C 47 % 2.8 °C 1009.3 hPa 7.4 Km/h W 0.0 mm  3.9 °C 15.8 °C
Alleghe Lago (BL) 18/04/19 15.08 14.1 °C 46 % 2.6 °C 1022.5 hPa 18.5 Km/h WSW 0.0 mm  4.4 °C 14.6 °C
Arquà Polesine (RO) 18/04/19 15.05 22.1 °C 40 % 7.9 °C 1025.7 hPa 1.6 Km/h NE 0.0 mm  8.9 °C 22.2 °C
Arzignano loc. Castello (VI) 18/04/19 15.00 21.8 °C 42 % 8.3 °C 1022.9 hPa 0.0 Km/h NNW 0.0 mm  11.3 °C 21.9 °C
Arzignano Pugnello (VI) 18/04/19 15.04 18.7 °C 47 % 7.2 °C 1022.4 hPa 0.0 Km/h SSE 0.0 mm  11.2 °C 19.0 °C
Arzignano Tezze (VI) 18/04/19 14.59 21.3 °C 45 % 8.9 °C 1023.9 hPa 1.6 Km/h ESE 0.0 mm  7.6 °C 21.3 °C
Asiago Rifugio Val Formica (VI) 18/04/19 15.08 6.9 °C 70 % 1.8 °C 1026.4 hPa 10.2 Km/h SSE 0.0 mm  -0.3 °C 6.9 °C
Badia Calavena loc. San Valentino (VR) 18/04/19 15.08 13.9 °C 50 % 3.7 °C 1022.3 hPa 12.9 Km/h ESE 0.0 mm  9.0 °C 14.2 °C
Bardolino (VR) 18/04/19 15.04 18.9 °C 46 % 7.0 °C 1016.9 hPa 12.9 Km/h W 0.0 mm  11.1 °C 18.9 °C
Beccacivetta (VR) 18/04/19 14.59 20.6 °C 37 % 5.3 °C 1023.9 hPa 3.2 Km/h ESE 0.0 mm  9.9 °C 20.8 °C
Belluno Castion (BL) 18/04/19 15.00 19.5 °C 43 % 6.6 °C 1023.1 hPa 1.6 Km/h E 0.0 mm  6.2 °C 19.7 °C
Bosco Chiesanuova ARPAV (VR) 18/04/19 15.00 11.0 °C 60 % 3.5 °C  hPa 12.6 Km/h S 0.0 mm  7.5 °C 11.9 °C
Brendola (VI) 18/04/19 15.05 21.9 °C 17 % -4.3 °C 1010.0 hPa 8.6 Km/h S 0.0 mm  7.7 °C 22.4 °C
Bresega (PD) 18/04/19 15.05 20.8 °C 43 % 7.8 °C 1024.0 hPa 16.7 Km/h E 0.0 mm  9.3 °C 21.2 °C
Brognoligo (VR) 18/04/19 14.59 21.7 °C 35 % 5.6 °C 1021.2 hPa 7.2 Km/h E 0.0 mm  10.6 °C 22.6 °C
Brugine2 (PD) 18/04/19 15.03 20.1 °C 44 % 7.5 °C 1024.6 hPa 0.4 Km/h ENE 0.0 mm  9.4 °C 20.4 °C
Brustolé ARPAV (VI) 18/04/19 15.00 18.6 °C  %  °C  hPa 0.0 Km/h 0.0 mm  7.3 °C 18.6 °C
Calmasino ARPAV (VR) 18/04/19 15.00 19.1 °C 34 % 2.9 °C 1023.9 hPa 10.8 Km/h E 0.0 mm  11.0 °C 19.3 °C
Campomolon ARPAV (VI) 18/04/19 14.00 6.1 °C  %  °C  hPa 5.4 Km/h ENE 0.0 mm  1.8 °C 6.9 °C
Carceri (PD) 18/04/19 14.45 19.9 °C 38 % 5.0 °C 1023.6 hPa 6.4 Km/h NE 0.0 mm  10.1 °C 19.9 °C
Cartigliano (VI) 18/04/19 15.08 21.5 °C 33 % 4.5 °C 1023.4 hPa 6.5 Km/h S 0.0 mm  10.6 °C 21.9 °C
Casotto (VI) 18/04/19 15.04 18.2 °C 45 % 6.1 °C 1022.2 hPa 11.3 Km/h NW 0.0 mm  7.4 °C 18.7 °C
Castana ARPAV (VI) 18/04/19 15.00 17.2 °C 39 % 3.1 °C  hPa 8.6 Km/h NE 0.0 mm  4.3 °C 17.2 °C
Castel d'Azzano (VR) 18/04/19 14.55 20.9 °C 41 % 7.2 °C 1055.0 hPa 1.6 Km/h SSW 0.0 mm  11.2 °C 21.6 °C
Castelfranco Veneto (TV) 18/04/19 15.00 21.1 °C 40 % 7.0 °C 1024.9 hPa 1.3 Km/h NNE 0.0 mm  11.1 °C 21.3 °C
Castelgomberto (VI) 17/04/19 14.11 21.2 °C 38 % 6.3 °C 1018.3 hPa 5.8 Km/h S 0.0 mm  7.8 °C 21.8 °C
Cerea (VR) 18/04/19 07.30 11.8 °C 73 % 7.1 °C 1023.8 hPa 6.4 Km/h ENE 0.0 mm  10.4 °C 13.1 °C
Cerea2 (VR) 18/04/19 15.00 20.9 °C 29 % 2.2 °C 1025.0 hPa 13.0 Km/h ESE 0.0 mm  10.3 °C 21.4 °C
Cima Grappa (TV) 18/04/19 15.09 5.4 °C 79 % 2.0 °C 1028.5 hPa 7.6 Km/h SE 0.0 mm  1.1 °C 5.8 °C
Cismon del Grappa loc. Corlo (VI) 18/04/19 15.09 17.7 °C 42 % 4.6 °C 1024.7 hPa 8.3 Km/h S 0.0 mm  7.9 °C 18.6 °C
Cogollo del Cengio (VI) 18/04/19 15.04 18.4 °C 21 % -4.3 °C 1022.9 hPa 11.7 Km/h SW 0.0 mm  8.7 °C 18.7 °C
Cologna Veneta Sant'Andrea (VR) 18/04/19 12.15 19.8 °C 46 % 7.9 °C 1024.5 hPa 3.2 Km/h ENE 0.0 mm  9.3 °C 19.9 °C
Colognola ai Colli (VR) 18/04/19 14.40 21.0 °C 43 % 7.9 °C 1023.9 hPa 6.4 Km/h N 0.0 mm  10.9 °C 21.0 °C
Contrada Dosso Gervasio (VR) 18/04/19 15.00 12.6 °C 59 % 4.8 °C 1023.6 hPa 0.0 Km/h SSE 0.0 mm  8.5 °C 13.5 °C
Cornedo Vicentino loc. Muzzolon (VI) 18/04/19 14.59 20.0 °C 42 % 6.7 °C 1023.2 hPa 0.0 Km/h SSE 0.0 mm  8.7 °C 20.9 °C
Corrubio di S. Anna d'Alfaedo (VR) 12/04/19 09.00 6.3 °C 96 % 5.7 °C 1013.8 hPa 1.6 Km/h SSE 0.2 mm  6.1 °C 7.8 °C
Costa di Vittorio Veneto (TV) 18/04/19 14.59 20.7 °C 39 % 6.2 °C 1023.2 hPa 3.2 Km/h S 0.0 mm  9.4 °C 20.7 °C
Dossobuono (VR) 18/04/19 15.09 20.6 °C 40 % 6.5 °C 1025.3 hPa 16.1 Km/h SE 0.0 mm  11.0 °C 20.7 °C
Erbezzo Passo Fittanze (VR) 18/04/19 14.57 8.7 °C 69 % 3.3 °C 1026.3 hPa 16.9 Km/h SE 0.0 mm  4.4 °C 9.1 °C
Falzè di Piave (TV) 18/04/19 15.04 20.3 °C 40 % 6.2 °C 1025.3 hPa 0.0 Km/h --- 0.0 mm  6.2 °C 21.6 °C
Farra di Soligo (TV) 18/04/19 15.05 19.3 °C 43 % 6.4 °C 1018.5 hPa 1.8 Km/h SSE 0.0 mm  9.6 °C 19.9 °C
Feltre Celarda (BL) 18/04/19 15.09 19.2 °C 45 % 7.0 °C 1022.8 hPa 0.0 Km/h ESE 0.0 mm  4.2 °C 20.2 °C
Ferrara di M.B. (VR) 18/04/19 14.55 9.7 °C 57 % 1.6 °C 1021.2 hPa 11.3 Km/h S 0.0 mm  4.3 °C 10.2 °C
Forchiade S. Tomaso Ag. (BL) 18/04/19 14.59 15.8 °C 40 % 2.2 °C 1017.5 hPa 6.4 Km/h SE 0.0 mm  4.4 °C 16.9 °C
Fumane Contrada La Ca (VR) 18/04/19 14.59 18.5 °C 39 % 4.3 °C 1026.0 hPa 9.7 Km/h S 0.0 mm  10.6 °C 18.7 °C
Gallio (VI) 18/04/19 14.55 12.2 °C 56 % 3.7 °C 1025.0 hPa 6.4 Km/h E 0.0 mm  3.2 °C 12.9 °C
Grancare di Villabalzana (VI) 18/04/19 14.59 19.6 °C 40 % 5.7 °C 1009.4 hPa 5.5 Km/h SW 0.0 mm  10.0 °C 20.5 °C
Illasi ARPAV (VR) 18/04/19 15.00 20.0 °C 36 % 4.5 °C  hPa 5.4 Km/h E 0.0 mm  11.6 °C 20.0 °C
Legnago (VR) 18/04/19 15.05 20.6 °C 45 % 8.2 °C 1024.0 hPa 6.4 Km/h ENE 0.0 mm  9.2 °C 20.7 °C
Lendinara2 (RO) 18/04/19 14.59 20.8 °C 44 % 8.1 °C 1024.5 hPa 3.2 Km/h ENE 0.0 mm  6.7 °C 21.3 °C
Lugagnano (VR) 18/04/19 14.34 21.4 °C 39 % 6.7 °C 1023.1 hPa 8.0 Km/h WSW 0.0 mm  10.3 °C 21.4 °C
Lugo di Vicenza (VI) 18/04/19 15.04 20.3 °C 33 % 3.5 °C 1022.6 hPa 3.2 Km/h SSE 0.0 mm  10.2 °C 20.7 °C
Lusiana Sciessere (VI) 18/04/19 15.04 15.4 °C 49 % 4.7 °C 1026.0 hPa 3.2 Km/h SE 0.0 mm  8.7 °C 15.8 °C
Malo ARPAV (VI) 18/04/19 15.00 19.9 °C 41 % 6.3 °C 1025.4 hPa 5.8 Km/h SE 1.0 mm  10.4 °C 19.9 °C
Marano di Valpolicella ARPAV (VR) 18/04/19 15.00 18.5 °C 38 % 3.9 °C  hPa 6.1 Km/h E 0.0 mm  11.5 °C 18.7 °C
Marano Vicentino2 (VI) 18/04/19 15.05 19.1 °C 45 % 6.9 °C 1023.4 hPa 0.0 Km/h NW 0.0 mm  9.4 °C 18.9 °C
Marostica Valle San Floriano (VI) 18/04/19 15.04 20.4 °C 42 % 7.1 °C 1025.5 hPa 0.0 Km/h ENE 0.0 mm  10.2 °C 20.6 °C
Merlara (PD) 18/04/19 15.00 20.2 °C 39 % 5.8 °C 1023.4 hPa 12.9 Km/h SSE 0.0 mm  8.7 °C 20.5 °C
Mizzole (VR) 18/04/19 15.06 22.6 °C 39 % 7.9 °C 1024.2 hPa 3.6 Km/h ENE 0.0 mm  13.3 °C 23.1 °C
Molina (VR) 18/04/19 14.59 16.3 °C 42 % 3.3 °C 1026.1 hPa 4.8 Km/h SE 0.0 mm  6.8 °C 16.9 °C
Monselice (PD) 18/04/19 15.09 21.9 °C 30 % 3.5 °C 1018.2 hPa 12.2 Km/h S 0.0 mm  11.0 °C 22.0 °C
Monte Baldo Nord ARPAV (VR) 18/04/19 14.00 4.2 °C 80 % 1.1 °C 1024.2 hPa 6.8 Km/h WSW 0.0 mm  3.4 °C 4.9 °C
Monte Tomba ARPAV (VR) 18/04/19 14.00 5.5 °C 68 % 0.1 °C  hPa 15.5 Km/h SSW 0.0 mm  3.6 °C 5.6 °C
Montebello Vicentino loc. Selva (VI) 18/04/19 15.09 19.7 °C 26 % -0.4 °C 1024.0 hPa 5.8 Km/h ENE 0.0 mm  13.0 °C 20.3 °C
Montecchio Maggiore Sant'Urbano (VI) 18/04/19 14.56 19.9 °C 21 % -3.1 °C 1032.7 hPa 10.0 Km/h E 0.0 mm  11.8 °C 20.0 °C
Monteforte d'Alpone2 (VR) 18/04/19 15.10 21.2 °C 36 % 5.5 °C 1022.8 hPa 4.8 Km/h ESE 0.0 mm  10.2 °C 21.3 °C
Montorio (VR) 18/04/19 14.59 21.5 °C 38 % 6.6 °C 1026.0 hPa 10.1 Km/h SE 0.0 mm  12.4 °C 21.5 °C
Montorso Vicentino (VI) 18/04/19 15.09 18.2 °C 45 % 6.0 °C 1024.3 hPa 12.9 Km/h E 0.0 mm  10.5 °C 18.8 °C
Onara extraurbana (PD) 18/04/19 15.04 21.2 °C 40 % 7.1 °C 1019.8 hPa 1.7 Km/h NNE 0.0 mm  9.8 °C 21.4 °C
Passo Campogrosso ARPAV (VI) 18/04/19 14.00 7.0 °C 67 % 1.3 °C  hPa 16.6 Km/h E 0.0 mm  3.0 °C 7.3 °C
Pastrengo (VR) 18/04/19 14.59 20.1 °C 34 % 3.7 °C 1026.5 hPa 3.7 Km/h E 0.0 mm  11.3 °C 20.5 °C
Pastrengo Corné (VR) 18/04/19 15.09 19.7 °C 43 % 6.7 °C 1022.9 hPa 3.2 Km/h WSW 0.0 mm  10.2 °C 20.6 °C
Pedemonte (VR) 18/04/19 15.00 21.5 °C 41 % 7.7 °C 1023.7 hPa 6.0 Km/h SSW 0.0 mm  9.4 °C 21.6 °C
Perarolo di Arcugnano (VI) 18/04/19 15.06 0.0 °C 0 % 4.9 °C 994.3 hPa 0.0 Km/h NNE 0.0 mm  0.0 °C 0.0 °C
Pescantina Are (VR) 18/04/19 14.54 21.3 °C 39 % 6.8 °C 1023.9 hPa 3.2 Km/h E 0.0 mm  9.2 °C 22.6 °C
Peschiera del Garda (VR) 18/04/19 15.00 20.4 °C 43 % 7.4 °C 1024.2 hPa 9.7 Km/h SE 0.0 mm  9.7 °C 20.5 °C
Pian di Castagné (VR) 18/04/19 14.55 18.1 °C 42 % 5.0 °C 1023.9 hPa 6.4 Km/h SE 0.0 mm  12.3 °C 18.6 °C
Pian di Castagné2 (VR) 18/04/19 14.59 18.5 °C 48 % 7.3 °C 1024.6 hPa 7.2 Km/h SW 0.0 mm  14.8 °C 18.5 °C
Pojana Maggiore Cagnano (VI) 18/04/19 15.00 21.7 °C 31 % 3.8 °C 1022.0 hPa 7.0 Km/h 0.0 mm  8.5 °C 21.9 °C
Ponte San Nicolò (PD) 18/04/19 14.59 20.7 °C 38 % 5.9 °C 1024.3 hPa 8.0 Km/h ENE 0.0 mm  11.6 °C 21.3 °C
Posina loc. Contrà Boni (VI) 18/04/19 15.04 16.1 °C 49 % 5.4 °C 1026.5 hPa 1.6 Km/h E 0.0 mm  7.6 °C 17.1 °C
Rifugio Bocca di Selva (VR) 18/04/19 15.09 7.0 °C 74 % 2.7 °C 1025.6 hPa 20.9 Km/h SSE 0.0 mm  4.5 °C 7.3 °C
Rifugio Castelberto (VR) 18/04/19 15.10 6.4 °C 73 % 1.9 °C 1025.3 hPa 27.4 Km/h SE 0.0 mm  2.9 °C 6.7 °C
Rifugio Fiori del Baldo (VR) 18/04/19 14.55 3.8 °C 75 % 0.9 °C 1028.3 hPa 28.3 Km/h SE 0.0 mm  2.7 °C 5.2 °C
Rifugio la Guardia ARPAV (VI) 18/04/19 15.00 10.6 °C 56 % 2.2 °C  hPa 11.5 Km/h ESE 0.0 mm  5.9 °C 11.7 °C
Rifugio Primaneve (VR) 18/04/19 15.04 4.6 °C 81 % 1.6 °C 1026.0 hPa 22.1 Km/h SSE 0.0 mm  2.9 °C 5.1 °C
Romano d'Ezzelino Fellette (VI) 18/04/19 15.08 19.6 °C 40 % 5.6 °C 1026.6 hPa 8.9 Km/h NE 0.0 mm  11.8 °C 19.8 °C
Rossano Veneto (VI) 18/04/19 15.09 22.0 °C 35 % 5.8 °C 1023.9 hPa 0.0 Km/h SSE 0.0 mm  12.3 °C 22.1 °C
Roverchiara ARPAV (VR) 18/04/19 15.00 21.2 °C 35 % 5.1 °C  hPa 11.2 Km/h ESE 0.0 mm  8.6 °C 21.2 °C
S. Donà di Piave (VE) 18/04/19 14.33 21.9 °C 34 % 5.3 °C 1023.4 hPa 1.6 Km/h ENE 0.0 mm  9.8 °C 22.3 °C
S. Giovanni Ilarione2 (VR) 18/04/19 15.05 20.0 °C 40 % 6.0 °C 1023.8 hPa 4.8 Km/h SE 0.0 mm  9.4 °C 20.3 °C
S. Giovanni Lupatoto (VR) 18/04/19 15.00 21.8 °C 41 % 8.0 °C 1024.5 hPa 1.6 Km/h S 0.0 mm  10.9 °C 22.4 °C
S. Lorenzo di Vittorio Veneto (TV) 18/04/19 15.05 18.7 °C 44 % 6.2 °C 1025.1 hPa 4.8 Km/h S 0.0 mm  10.9 °C 18.7 °C
S. Maria di Zevio Loc. 3 Ponti (VR) 18/04/19 15.05 20.6 °C 40 % 6.5 °C 1025.7 hPa 6.4 Km/h SSE 0.0 mm  10.0 °C 20.6 °C
S. Maria Maddalena (RO) 18/04/19 15.05 21.4 °C 42 % 7.8 °C 1023.5 hPa 4.8 Km/h NE 0.0 mm  9.1 °C 21.6 °C
S. Martino Lupari (PD) 18/04/19 15.00 21.5 °C 45 % 9.1 °C 661.4 hPa 1.6 Km/h ENE 0.0 mm  11.7 °C 21.8 °C
S. Rocco di Villabalzana (VI) 18/04/19 15.07 19.7 °C 45 % 7.2 °C 1023.9 hPa 13.0 Km/h ENE 0.0 mm  10.8 °C 20.6 °C
Salcedo (VI) 18/04/19 15.09 17.7 °C 51 % 7.4 °C 1023.6 hPa 5.8 Km/h ESE 0.0 mm  11.2 °C 17.8 °C
San Bortolo ARPAV (VR) 18/04/19 15.00 11.9 °C  %  °C  hPa 15.8 Km/h ESE 0.0 mm  7.5 °C 12.2 °C
San Nazario (VI) 18/04/19 15.08 21.9 °C 29 % 3.1 °C 1022.9 hPa 6.1 Km/h S 0.0 mm  9.6 °C 22.3 °C
San Pietro di Rosà (VI) 18/04/19 15.08 21.7 °C 35 % 5.6 °C 1027.6 hPa 1.5 Km/h NE 0.0 mm  11.8 °C 21.8 °C
San Pietro in Cariano (VR) 18/04/19 11.04 18.2 °C 36 % 2.9 °C 1024.3 hPa 15.8 Km/h SE 0.0 mm  10.7 °C 18.2 °C
San Vito di Negrar (VR) 18/04/19 15.00 20.3 °C 41 % 6.6 °C 1024.5 hPa 6.4 Km/h SE 0.0 mm  10.3 °C 20.5 °C
San Zeno di Mont. Loc. Castello (VR) 18/04/19 15.05 14.9 °C 49 % 4.4 °C 1023.2 hPa 9.8 Km/h ENE 0.0 mm  10.2 °C 15.1 °C
Santa Maria di Negrar (VR) 18/04/19 14.59 21.4 °C 40 % 7.3 °C 1024.9 hPa 7.9 Km/h W 0.0 mm  9.9 °C 21.6 °C
Sarcedo (VI) 18/04/19 15.04 20.2 °C 39 % 5.8 °C 1023.2 hPa 2.5 Km/h SE 0.0 mm  8.3 °C 20.6 °C
Schio (VI) 18/04/19 14.40 20.9 °C 37 % 5.6 °C 1025.6 hPa 3.2 Km/h SSW 0.0 mm  10.6 °C 21.4 °C
Schio Monte Magré (VI) 18/04/19 15.09 17.8 °C 47 % 6.3 °C 0.0 hPa 0.0 Km/h ENE 0.0 mm  9.1 °C 18.3 °C
Selva di Progno (VR) 18/04/19 14.55 15.8 °C 50 % 5.4 °C 1022.9 hPa 9.7 Km/h S 0.0 mm  5.9 °C 16.2 °C
Soave Borgo Bassano (VR) 18/04/19 15.05 21.5 °C 38 % 6.6 °C 1024.4 hPa 2.0 Km/h WNW 0.0 mm  10.9 °C 21.6 °C
Sona Loc. La Colombara (VR) 18/04/19 15.00 20.0 °C 43 % 7.0 °C 1020.4 hPa 10.0 Km/h ENE 0.0 mm  9.0 °C 20.0 °C
Sorgà ARPAV (VR) 18/04/19 15.00 21.2 °C 34 % 4.7 °C  hPa 10.4 Km/h SE 0.0 mm  10.6 °C 21.2 °C
Tombolo (PD) 18/04/19 15.09 21.4 °C 41 % 7.6 °C 1024.9 hPa 13.0 Km/h E 0.0 mm  11.5 °C 21.4 °C
Tregnago (VR) 18/04/19 14.55 18.3 °C 42 % 5.1 °C 1023.6 hPa 1.6 Km/h S 0.0 mm  10.6 °C 18.3 °C
Treviso (TV) 18/04/19 15.06 21.5 °C 31 % 3.7 °C 1023.9 hPa 3.0 Km/h E 0.0 mm  8.8 °C 22.3 °C
Turcati ARPAV (VI) 18/04/19 15.00 14.6 °C 48 % 3.7 °C  hPa 0.0 Km/h 0.0 mm  8.3 °C 14.6 °C
Val Lastaro (VI) 18/04/19 14.59 11.9 °C 60 % 4.4 °C 1025.8 hPa 4.8 Km/h SE 0.0 mm  1.2 °C 12.0 °C
Valdagno (VI) 18/04/19 15.06 18.8 °C 32 % 1.7 °C 1028.5 hPa 17.3 Km/h SE 0.0 mm  9.5 °C 20.0 °C
Valdobbiadene San Pietro di Barbozza (TV) 18/04/19 15.00 17.2 °C 44 % 4.8 °C 1023.6 hPa 4.8 Km/h ESE 0.0 mm  12.4 °C 17.6 °C
Valli del Pasubio loc. Gisbenti (VI) 18/04/19 15.05 17.9 °C 42 % 4.8 °C 980.0 hPa 9.7 Km/h SE 0.0 mm  6.1 °C 18.3 °C
Vazzo Roveré Veronese (VR) 18/04/19 15.09 12.6 °C 59 % 4.8 °C 1022.0 hPa 3.2 Km/h ESE 0.0 mm  7.4 °C 14.1 °C
Verona Bgo Venezia (iz3sly) (VR) 18/04/19 15.01 21.4 °C 40 % 7.2 °C 1022.9 hPa 11.3 Km/h W 0.0 mm  12.0 °C 21.5 °C
Verona Cadidavid2 (VR) 18/04/19 14.55 20.5 °C 39 % 6.1 °C 1024.2 hPa 7.6 Km/h ESE 0.0 mm  9.6 °C 20.9 °C
Vicenza Campedello (VI) 18/04/19 15.19 20.6 °C 42 % 7.2 °C 1025.0 hPa 3.2 Km/h SE 0.0 mm  6.6 °C 20.9 °C
Vicenza Moracchino (VI) 18/04/19 15.09 19.9 °C 40 % 5.9 °C 1023.5 hPa 9.7 Km/h E 0.0 mm  9.6 °C 20.3 °C
Vicenza Pecori Giraldi (VI) 18/04/19 14.55 20.7 °C 40 % 6.6 °C 1022.9 hPa 4.0 Km/h E 0.0 mm  10.0 °C 21.2 °C
Vicenza S. Lazzaro (VI) 18/04/19 15.05 21.0 °C 38 % 6.1 °C 1023.6 hPa 0.0 Km/h E 0.0 mm  10.0 °C 21.0 °C
Vicenza San Gaetano (VI) 18/04/19 15.06 21.8 °C 44 % 9.0 °C 1024.2 hPa 0.3 Km/h ENE 0.0 mm  9.3 °C 21.8 °C
Vidor (TV) 18/04/19 15.05 19.9 °C 42 % 6.6 °C 1023.3 hPa 10.6 Km/h SE 0.0 mm  7.8 °C 20.9 °C
Vigardolo (VI) 18/04/19 15.05 20.8 °C 32 % 3.5 °C 1022.7 hPa 0.7 Km/h SE 0.0 mm  10.4 °C 20.8 °C
Vigasio (VR) 18/04/19 14.50 21.8 °C 39 % 7.3 °C 1022.3 hPa 4.8 Km/h SE 0.0 mm  10.1 °C 21.8 °C
Villabartolomea (VR) 18/04/19 15.04 20.4 °C 39 % 6.0 °C 1023.2 hPa 12.9 Km/h ESE 0.0 mm  10.1 °C 20.8 °C
Villafranca di Verona ARPAV (VR) 18/04/19 15.00 20.4 °C 33 % 3.6 °C  hPa 10.4 Km/h SE 0.0 mm  6.9 °C 20.4 °C
Vittorio Veneto Parco Fenderl (TV) 18/04/19 14.50 22.1 °C 37 % 6.7 °C 1024.9 hPa 0.0 Km/h NNE 0.0 mm  -573.3 °C 22.1 °C
Volpago del Montello (TV) 18/04/19 15.00 18.7 °C 49 % 7.8 °C 1024.4 hPa 4.8 Km/h E 0.0 mm  8.4 °C 19.3 °C
 
 
 
(*) = Precipitazioni nelle ultime 24h.
Dati non aggiornati nell'ultima ora.
   
In collaborazione con:
 
Top! Top!